sensor_id;sensor_type;location;lat;lon;timestamp;P1;durP1;ratioP1;P2;durP2;ratioP2
38725;SDS011;24474;48.906;8.808;2023-01-25T00:00:54;31.83;;;20.98;;
38725;SDS011;24474;48.906;8.808;2023-01-25T00:03:28;31.05;;;20.75;;
38725;SDS011;24474;48.906;8.808;2023-01-25T00:05:58;29.40;;;20.02;;
38725;SDS011;24474;48.906;8.808;2023-01-25T00:08:28;34.20;;;22.45;;
38725;SDS011;24474;48.906;8.808;2023-01-25T00:10:55;34.17;;;22.27;;
38725;SDS011;24474;48.906;8.808;2023-01-25T00:13:22;33.30;;;22.02;;
38725;SDS011;24474;48.906;8.808;2023-01-25T00:15:47;33.70;;;22.77;;
38725;SDS011;24474;48.906;8.808;2023-01-25T00:18:13;30.55;;;20.25;;
38725;SDS011;24474;48.906;8.808;2023-01-25T00:20:38;33.05;;;21.95;;
38725;SDS011;24474;48.906;8.808;2023-01-25T00:23:07;37.17;;;23.17;;
38725;SDS011;24474;48.906;8.808;2023-01-25T00:25:33;32.90;;;20.85;;
38725;SDS011;24474;48.906;8.808;2023-01-25T00:27:58;32.00;;;20.40;;
38725;SDS011;24474;48.906;8.808;2023-01-25T00:30:30;32.00;;;21.02;;
38725;SDS011;24474;48.906;8.808;2023-01-25T00:35:42;30.30;;;20.85;;
38725;SDS011;24474;48.906;8.808;2023-01-25T00:38:23;30.30;;;20.50;;
38725;SDS011;24474;48.906;8.808;2023-01-25T00:40:56;36.03;;;20.65;;
38725;SDS011;24474;48.906;8.808;2023-01-25T00:43:47;30.95;;;21.35;;
38725;SDS011;24474;48.906;8.808;2023-01-25T00:46:16;30.02;;;20.02;;
38725;SDS011;24474;48.906;8.808;2023-01-25T00:48:42;29.17;;;20.03;;
38725;SDS011;24474;48.906;8.808;2023-01-25T00:51:08;31.05;;;20.52;;
38725;SDS011;24474;48.906;8.808;2023-01-25T00:53:36;33.70;;;22.13;;
38725;SDS011;24474;48.906;8.808;2023-01-25T00:56:04;33.60;;;22.35;;
38725;SDS011;24474;48.906;8.808;2023-01-25T00:58:33;33.50;;;21.23;;
38725;SDS011;24474;48.906;8.808;2023-01-25T01:00:59;32.03;;;22.30;;
38725;SDS011;24474;48.906;8.808;2023-01-25T01:03:28;32.97;;;21.17;;
38725;SDS011;24474;48.906;8.808;2023-01-25T01:06:03;32.80;;;22.02;;
38725;SDS011;24474;48.906;8.808;2023-01-25T01:08:39;33.17;;;21.27;;
38725;SDS011;24474;48.906;8.808;2023-01-25T01:11:08;33.05;;;21.77;;
38725;SDS011;24474;48.906;8.808;2023-01-25T01:17:00;32.70;;;21.38;;
38725;SDS011;24474;48.906;8.808;2023-01-25T01:19:27;34.97;;;22.05;;
38725;SDS011;24474;48.906;8.808;2023-01-25T01:21:53;34.00;;;22.15;;
38725;SDS011;24474;48.906;8.808;2023-01-25T01:24:21;33.10;;;20.88;;
38725;SDS011;24474;48.906;8.808;2023-01-25T01:26:48;31.25;;;21.38;;
38725;SDS011;24474;48.906;8.808;2023-01-25T01:29:16;34.20;;;21.70;;
38725;SDS011;24474;48.906;8.808;2023-01-25T01:31:43;30.20;;;21.80;;
38725;SDS011;24474;48.906;8.808;2023-01-25T01:34:09;31.60;;;21.80;;
38725;SDS011;24474;48.906;8.808;2023-01-25T01:36:39;30.80;;;20.65;;
38725;SDS011;24474;48.906;8.808;2023-01-25T01:39:05;33.25;;;20.95;;
38725;SDS011;24474;48.906;8.808;2023-01-25T01:41:35;32.30;;;21.88;;
38725;SDS011;24474;48.906;8.808;2023-01-25T01:44:01;31.17;;;21.02;;
38725;SDS011;24474;48.906;8.808;2023-01-25T01:46:35;34.70;;;22.35;;
38725;SDS011;24474;48.906;8.808;2023-01-25T01:49:11;35.63;;;22.77;;
38725;SDS011;24474;48.906;8.808;2023-01-25T01:51:47;32.38;;;22.05;;
38725;SDS011;24474;48.906;8.808;2023-01-25T01:54:42;31.63;;;21.25;;
38725;SDS011;24474;48.906;8.808;2023-01-25T01:57:15;30.63;;;21.00;;
38725;SDS011;24474;48.906;8.808;2023-01-25T02:00:00;33.35;;;21.55;;
38725;SDS011;24474;48.906;8.808;2023-01-25T02:02:35;31.85;;;20.77;;
38725;SDS011;24474;48.906;8.808;2023-01-25T02:05:04;32.42;;;20.83;;
38725;SDS011;24474;48.906;8.808;2023-01-25T02:07:36;32.88;;;20.48;;
38725;SDS011;24474;48.906;8.808;2023-01-25T02:10:05;33.63;;;21.17;;
38725;SDS011;24474;48.906;8.808;2023-01-25T02:12:34;35.05;;;21.73;;
38725;SDS011;24474;48.906;8.808;2023-01-25T02:15:02;31.95;;;20.45;;
38725;SDS011;24474;48.906;8.808;2023-01-25T02:17:34;31.95;;;21.05;;
38725;SDS011;24474;48.906;8.808;2023-01-25T02:25:47;30.27;;;20.70;;
38725;SDS011;24474;48.906;8.808;2023-01-25T02:31:01;30.27;;;20.48;;
38725;SDS011;24474;48.906;8.808;2023-01-25T02:33:29;35.50;;;21.40;;
38725;SDS011;24474;48.906;8.808;2023-01-25T02:38:50;29.45;;;20.20;;
38725;SDS011;24474;48.906;8.808;2023-01-25T02:41:38;31.42;;;21.17;;
38725;SDS011;24474;48.906;8.808;2023-01-25T02:44:13;32.65;;;21.25;;
38725;SDS011;24474;48.906;8.808;2023-01-25T02:46:47;31.15;;;21.15;;
38725;SDS011;24474;48.906;8.808;2023-01-25T02:49:14;29.35;;;20.90;;
38725;SDS011;24474;48.906;8.808;2023-01-25T02:51:45;32.45;;;21.23;;
38725;SDS011;24474;48.906;8.808;2023-01-25T02:54:13;33.30;;;21.45;;
38725;SDS011;24474;48.906;8.808;2023-01-25T02:56:41;33.33;;;21.75;;
38725;SDS011;24474;48.906;8.808;2023-01-25T02:59:08;35.08;;;22.05;;
38725;SDS011;24474;48.906;8.808;2023-01-25T03:01:39;35.22;;;22.83;;
38725;SDS011;24474;48.906;8.808;2023-01-25T03:04:08;37.42;;;23.63;;
38725;SDS011;24474;48.906;8.808;2023-01-25T03:06:35;37.28;;;22.73;;
38725;SDS011;24474;48.906;8.808;2023-01-25T03:09:03;34.95;;;21.33;;
38725;SDS011;24474;48.906;8.808;2023-01-25T03:11:31;33.65;;;21.17;;
38725;SDS011;24474;48.906;8.808;2023-01-25T03:13:57;34.75;;;22.38;;
38725;SDS011;24474;48.906;8.808;2023-01-25T03:16:23;30.83;;;21.83;;
38725;SDS011;24474;48.906;8.808;2023-01-25T03:18:57;34.05;;;22.05;;
38725;SDS011;24474;48.906;8.808;2023-01-25T03:21:24;32.40;;;22.30;;
38725;SDS011;24474;48.906;8.808;2023-01-25T03:23:54;34.65;;;22.83;;
38725;SDS011;24474;48.906;8.808;2023-01-25T03:26:22;33.25;;;22.23;;
38725;SDS011;24474;48.906;8.808;2023-01-25T03:28:49;36.38;;;23.13;;
38725;SDS011;24474;48.906;8.808;2023-01-25T03:31:16;36.28;;;23.45;;
38725;SDS011;24474;48.906;8.808;2023-01-25T03:33:42;34.60;;;21.90;;
38725;SDS011;24474;48.906;8.808;2023-01-25T03:36:23;38.63;;;24.13;;
38725;SDS011;24474;48.906;8.808;2023-01-25T03:38:50;35.90;;;22.58;;
38725;SDS011;24474;48.906;8.808;2023-01-25T03:41:16;34.80;;;22.20;;
38725;SDS011;24474;48.906;8.808;2023-01-25T03:43:43;36.28;;;22.75;;
38725;SDS011;24474;48.906;8.808;2023-01-25T03:46:10;35.30;;;21.30;;
38725;SDS011;24474;48.906;8.808;2023-01-25T03:48:38;32.45;;;21.52;;
38725;SDS011;24474;48.906;8.808;2023-01-25T03:51:06;35.65;;;22.48;;
38725;SDS011;24474;48.906;8.808;2023-01-25T03:53:36;36.58;;;22.98;;
38725;SDS011;24474;48.906;8.808;2023-01-25T03:56:05;38.30;;;22.80;;
38725;SDS011;24474;48.906;8.808;2023-01-25T03:58:35;36.97;;;20.75;;
38725;SDS011;24474;48.906;8.808;2023-01-25T04:01:04;33.53;;;21.02;;
38725;SDS011;24474;48.906;8.808;2023-01-25T04:03:34;33.10;;;21.67;;
38725;SDS011;24474;48.906;8.808;2023-01-25T04:06:00;31.50;;;20.25;;
38725;SDS011;24474;48.906;8.808;2023-01-25T04:08:31;32.55;;;21.30;;
38725;SDS011;24474;48.906;8.808;2023-01-25T04:11:03;34.08;;;20.88;;
38725;SDS011;24474;48.906;8.808;2023-01-25T04:13:31;34.78;;;21.92;;
38725;SDS011;24474;48.906;8.808;2023-01-25T04:16:01;33.95;;;20.70;;
38725;SDS011;24474;48.906;8.808;2023-01-25T04:18:29;37.67;;;21.92;;
38725;SDS011;24474;48.906;8.808;2023-01-25T04:20:56;36.47;;;22.02;;
38725;SDS011;24474;48.906;8.808;2023-01-25T04:23:22;33.28;;;21.45;;
38725;SDS011;24474;48.906;8.808;2023-01-25T04:25:53;32.53;;;20.50;;
38725;SDS011;24474;48.906;8.808;2023-01-25T04:28:21;31.40;;;19.92;;
38725;SDS011;24474;48.906;8.808;2023-01-25T04:30:47;31.38;;;21.65;;
38725;SDS011;24474;48.906;8.808;2023-01-25T04:33:13;34.60;;;20.92;;
38725;SDS011;24474;48.906;8.808;2023-01-25T04:35:40;31.10;;;20.05;;
38725;SDS011;24474;48.906;8.808;2023-01-25T04:38:08;32.72;;;19.33;;
38725;SDS011;24474;48.906;8.808;2023-01-25T04:40:34;31.45;;;20.13;;
38725;SDS011;24474;48.906;8.808;2023-01-25T04:43:03;33.17;;;20.88;;
38725;SDS011;24474;48.906;8.808;2023-01-25T04:45:31;26.85;;;18.70;;
38725;SDS011;24474;48.906;8.808;2023-01-25T04:48:01;30.65;;;19.58;;
38725;SDS011;24474;48.906;8.808;2023-01-25T04:50:29;31.02;;;19.98;;
38725;SDS011;24474;48.906;8.808;2023-01-25T04:52:56;31.90;;;19.92;;
38725;SDS011;24474;48.906;8.808;2023-01-25T04:55:23;33.83;;;21.02;;
38725;SDS011;24474;48.906;8.808;2023-01-25T04:57:49;31.58;;;19.92;;
38725;SDS011;24474;48.906;8.808;2023-01-25T05:00:16;31.70;;;20.63;;
38725;SDS011;24474;48.906;8.808;2023-01-25T05:02:44;30.65;;;19.48;;
38725;SDS011;24474;48.906;8.808;2023-01-25T05:05:12;30.67;;;19.10;;
38725;SDS011;24474;48.906;8.808;2023-01-25T05:07:39;30.88;;;20.40;;
38725;SDS011;24474;48.906;8.808;2023-01-25T05:10:04;29.15;;;18.05;;
38725;SDS011;24474;48.906;8.808;2023-01-25T05:12:32;31.60;;;18.80;;
38725;SDS011;24474;48.906;8.808;2023-01-25T05:14:57;28.75;;;18.98;;
38725;SDS011;24474;48.906;8.808;2023-01-25T05:17:24;27.73;;;18.13;;
38725;SDS011;24474;48.906;8.808;2023-01-25T05:19:52;29.73;;;18.58;;
38725;SDS011;24474;48.906;8.808;2023-01-25T05:22:17;26.95;;;17.60;;
38725;SDS011;24474;48.906;8.808;2023-01-25T05:24:46;29.80;;;18.60;;
38725;SDS011;24474;48.906;8.808;2023-01-25T05:27:15;27.98;;;17.77;;
38725;SDS011;24474;48.906;8.808;2023-01-25T05:29:44;27.23;;;17.95;;
38725;SDS011;24474;48.906;8.808;2023-01-25T05:32:18;27.48;;;18.38;;
38725;SDS011;24474;48.906;8.808;2023-01-25T05:34:47;27.10;;;18.35;;
38725;SDS011;24474;48.906;8.808;2023-01-25T05:37:14;29.77;;;19.23;;
38725;SDS011;24474;48.906;8.808;2023-01-25T05:39:44;31.10;;;20.33;;
38725;SDS011;24474;48.906;8.808;2023-01-25T05:42:14;29.65;;;19.55;;
38725;SDS011;24474;48.906;8.808;2023-01-25T05:44:43;32.50;;;20.77;;
38725;SDS011;24474;48.906;8.808;2023-01-25T05:47:14;31.75;;;20.65;;
38725;SDS011;24474;48.906;8.808;2023-01-25T05:49:41;32.70;;;20.85;;
38725;SDS011;24474;48.906;8.808;2023-01-25T05:52:08;31.25;;;20.70;;
38725;SDS011;24474;48.906;8.808;2023-01-25T05:54:39;33.78;;;22.27;;
38725;SDS011;24474;48.906;8.808;2023-01-25T05:57:05;30.63;;;20.90;;
38725;SDS011;24474;48.906;8.808;2023-01-25T05:59:30;31.95;;;20.58;;
38725;SDS011;24474;48.906;8.808;2023-01-25T06:01:57;32.70;;;20.83;;
38725;SDS011;24474;48.906;8.808;2023-01-25T06:04:23;31.70;;;19.65;;
38725;SDS011;24474;48.906;8.808;2023-01-25T06:06:50;30.30;;;19.42;;
38725;SDS011;24474;48.906;8.808;2023-01-25T06:09:15;37.42;;;23.50;;
38725;SDS011;24474;48.906;8.808;2023-01-25T06:11:45;31.17;;;20.52;;
38725;SDS011;24474;48.906;8.808;2023-01-25T06:14:11;35.53;;;22.23;;
38725;SDS011;24474;48.906;8.808;2023-01-25T06:16:37;34.53;;;21.88;;
38725;SDS011;24474;48.906;8.808;2023-01-25T06:19:06;29.90;;;20.10;;
38725;SDS011;24474;48.906;8.808;2023-01-25T06:21:33;33.60;;;19.60;;
38725;SDS011;24474;48.906;8.808;2023-01-25T06:24:01;33.75;;;20.02;;
38725;SDS011;24474;48.906;8.808;2023-01-25T06:26:28;32.42;;;19.75;;
38725;SDS011;24474;48.906;8.808;2023-01-25T06:28:57;32.17;;;19.73;;
38725;SDS011;24474;48.906;8.808;2023-01-25T06:31:24;31.77;;;18.65;;
38725;SDS011;24474;48.906;8.808;2023-01-25T06:33:51;27.55;;;18.40;;
38725;SDS011;24474;48.906;8.808;2023-01-25T06:36:19;26.85;;;17.05;;
38725;SDS011;24474;48.906;8.808;2023-01-25T06:38:51;32.05;;;19.13;;
38725;SDS011;24474;48.906;8.808;2023-01-25T06:41:17;31.45;;;19.35;;
38725;SDS011;24474;48.906;8.808;2023-01-25T06:43:45;29.50;;;18.48;;
38725;SDS011;24474;48.906;8.808;2023-01-25T06:46:16;29.02;;;20.90;;
38725;SDS011;24474;48.906;8.808;2023-01-25T06:48:44;26.33;;;18.38;;
38725;SDS011;24474;48.906;8.808;2023-01-25T06:51:10;32.92;;;21.63;;
38725;SDS011;24474;48.906;8.808;2023-01-25T06:53:37;26.33;;;18.33;;
38725;SDS011;24474;48.906;8.808;2023-01-25T06:56:06;28.65;;;16.80;;
38725;SDS011;24474;48.906;8.808;2023-01-25T06:58:42;25.50;;;17.67;;
38725;SDS011;24474;48.906;8.808;2023-01-25T07:01:12;28.63;;;17.77;;
38725;SDS011;24474;48.906;8.808;2023-01-25T07:03:46;35.35;;;21.15;;
38725;SDS011;24474;48.906;8.808;2023-01-25T07:06:18;29.02;;;16.95;;
38725;SDS011;24474;48.906;8.808;2023-01-25T07:08:45;27.27;;;17.80;;
38725;SDS011;24474;48.906;8.808;2023-01-25T07:11:12;29.70;;;18.33;;
38725;SDS011;24474;48.906;8.808;2023-01-25T07:13:43;25.88;;;17.23;;
38725;SDS011;24474;48.906;8.808;2023-01-25T07:18:41;28.65;;;17.13;;
38725;SDS011;24474;48.906;8.808;2023-01-25T07:21:09;30.10;;;18.88;;
38725;SDS011;24474;48.906;8.808;2023-01-25T07:23:39;27.63;;;17.17;;
38725;SDS011;24474;48.906;8.808;2023-01-25T07:26:10;25.55;;;15.65;;
38725;SDS011;24474;48.906;8.808;2023-01-25T07:28:47;30.27;;;17.83;;
38725;SDS011;24474;48.906;8.808;2023-01-25T07:31:15;24.08;;;16.48;;
38725;SDS011;24474;48.906;8.808;2023-01-25T07:33:41;25.27;;;16.67;;
38725;SDS011;24474;48.906;8.808;2023-01-25T07:36:08;24.70;;;16.42;;
38725;SDS011;24474;48.906;8.808;2023-01-25T07:38:36;27.50;;;17.50;;
38725;SDS011;24474;48.906;8.808;2023-01-25T07:41:02;28.48;;;17.60;;
38725;SDS011;24474;48.906;8.808;2023-01-25T07:43:30;26.52;;;18.10;;
38725;SDS011;24474;48.906;8.808;2023-01-25T07:46:02;30.55;;;17.63;;
38725;SDS011;24474;48.906;8.808;2023-01-25T07:48:36;23.77;;;16.00;;
38725;SDS011;24474;48.906;8.808;2023-01-25T07:51:05;25.95;;;15.68;;
38725;SDS011;24474;48.906;8.808;2023-01-25T07:53:49;27.98;;;16.17;;
38725;SDS011;24474;48.906;8.808;2023-01-25T07:56:17;26.42;;;16.08;;
38725;SDS011;24474;48.906;8.808;2023-01-25T07:59:08;22.83;;;15.43;;
38725;SDS011;24474;48.906;8.808;2023-01-25T08:01:39;25.55;;;16.35;;
38725;SDS011;24474;48.906;8.808;2023-01-25T08:04:05;25.33;;;15.35;;
38725;SDS011;24474;48.906;8.808;2023-01-25T08:06:34;23.30;;;15.00;;
38725;SDS011;24474;48.906;8.808;2023-01-25T08:09:07;35.15;;;19.58;;
38725;SDS011;24474;48.906;8.808;2023-01-25T08:11:38;33.63;;;19.13;;
38725;SDS011;24474;48.906;8.808;2023-01-25T08:14:05;25.92;;;17.15;;
38725;SDS011;24474;48.906;8.808;2023-01-25T08:16:34;22.98;;;16.15;;
38725;SDS011;24474;48.906;8.808;2023-01-25T08:19:00;25.20;;;15.98;;
38725;SDS011;24474;48.906;8.808;2023-01-25T08:21:29;23.40;;;15.82;;
38725;SDS011;24474;48.906;8.808;2023-01-25T08:24:02;19.55;;;13.80;;
38725;SDS011;24474;48.906;8.808;2023-01-25T08:26:29;21.38;;;13.13;;
38725;SDS011;24474;48.906;8.808;2023-01-25T08:28:56;23.33;;;14.63;;
38725;SDS011;24474;48.906;8.808;2023-01-25T08:31:25;20.85;;;14.18;;
38725;SDS011;24474;48.906;8.808;2023-01-25T08:33:52;21.17;;;14.15;;
38725;SDS011;24474;48.906;8.808;2023-01-25T08:36:18;22.42;;;15.10;;
38725;SDS011;24474;48.906;8.808;2023-01-25T08:38:45;18.90;;;13.35;;
38725;SDS011;24474;48.906;8.808;2023-01-25T08:41:16;19.48;;;13.43;;
38725;SDS011;24474;48.906;8.808;2023-01-25T08:43:44;17.65;;;12.07;;
38725;SDS011;24474;48.906;8.808;2023-01-25T08:46:12;20.45;;;13.35;;
38725;SDS011;24474;48.906;8.808;2023-01-25T08:48:40;21.15;;;14.75;;
38725;SDS011;24474;48.906;8.808;2023-01-25T08:51:07;20.88;;;13.63;;
38725;SDS011;24474;48.906;8.808;2023-01-25T08:53:36;19.50;;;12.77;;
38725;SDS011;24474;48.906;8.808;2023-01-25T08:56:06;19.33;;;12.80;;
38725;SDS011;24474;48.906;8.808;2023-01-25T08:58:39;21.02;;;13.38;;
38725;SDS011;24474;48.906;8.808;2023-01-25T09:01:08;19.83;;;13.13;;
38725;SDS011;24474;48.906;8.808;2023-01-25T09:03:36;20.40;;;13.60;;
38725;SDS011;24474;48.906;8.808;2023-01-25T09:06:05;22.90;;;14.63;;
38725;SDS011;24474;48.906;8.808;2023-01-25T09:08:33;21.27;;;13.23;;
38725;SDS011;24474;48.906;8.808;2023-01-25T09:10:59;18.88;;;13.07;;
38725;SDS011;24474;48.906;8.808;2023-01-25T09:13:30;21.48;;;13.57;;
38725;SDS011;24474;48.906;8.808;2023-01-25T09:16:04;21.48;;;12.55;;
38725;SDS011;24474;48.906;8.808;2023-01-25T09:18:31;19.08;;;12.55;;
38725;SDS011;24474;48.906;8.808;2023-01-25T09:20:58;19.63;;;12.82;;
38725;SDS011;24474;48.906;8.808;2023-01-25T09:23:25;20.58;;;13.88;;
38725;SDS011;24474;48.906;8.808;2023-01-25T09:25:57;19.98;;;13.18;;
38725;SDS011;24474;48.906;8.808;2023-01-25T09:28:24;19.92;;;13.43;;
38725;SDS011;24474;48.906;8.808;2023-01-25T09:30:55;20.27;;;13.38;;
38725;SDS011;24474;48.906;8.808;2023-01-25T09:33:27;21.00;;;13.88;;
38725;SDS011;24474;48.906;8.808;2023-01-25T09:35:54;18.75;;;12.95;;
38725;SDS011;24474;48.906;8.808;2023-01-25T09:38:21;21.33;;;13.70;;
38725;SDS011;24474;48.906;8.808;2023-01-25T09:40:56;19.90;;;14.25;;
38725;SDS011;24474;48.906;8.808;2023-01-25T09:47:00;22.33;;;14.45;;
38725;SDS011;24474;48.906;8.808;2023-01-25T09:49:51;17.98;;;12.85;;
38725;SDS011;24474;48.906;8.808;2023-01-25T09:55:15;23.48;;;16.80;;
38725;SDS011;24474;48.906;8.808;2023-01-25T10:00:32;22.98;;;15.40;;
38725;SDS011;24474;48.906;8.808;2023-01-25T10:03:18;22.65;;;15.95;;
38725;SDS011;24474;48.906;8.808;2023-01-25T10:05:48;20.60;;;14.32;;
38725;SDS011;24474;48.906;8.808;2023-01-25T10:08:35;21.75;;;14.23;;
38725;SDS011;24474;48.906;8.808;2023-01-25T10:11:26;22.85;;;15.10;;
38725;SDS011;24474;48.906;8.808;2023-01-25T10:13:56;27.25;;;18.05;;
38725;SDS011;24474;48.906;8.808;2023-01-25T10:16:30;28.73;;;19.08;;
38725;SDS011;24474;48.906;8.808;2023-01-25T10:22:12;19.15;;;13.68;;
38725;SDS011;24474;48.906;8.808;2023-01-25T10:29:54;17.42;;;12.90;;
38725;SDS011;24474;48.906;8.808;2023-01-25T10:32:28;19.60;;;12.73;;
38725;SDS011;24474;48.906;8.808;2023-01-25T10:34:56;24.73;;;13.38;;
38725;SDS011;24474;48.906;8.808;2023-01-25T10:37:39;18.17;;;12.45;;
38725;SDS011;24474;48.906;8.808;2023-01-25T10:42:50;16.25;;;11.43;;
38725;SDS011;24474;48.906;8.808;2023-01-25T10:45:20;21.52;;;14.32;;
38725;SDS011;24474;48.906;8.808;2023-01-25T10:47:48;17.98;;;12.60;;
38725;SDS011;24474;48.906;8.808;2023-01-25T10:53:03;23.98;;;15.57;;
38725;SDS011;24474;48.906;8.808;2023-01-25T10:55:30;22.83;;;15.15;;
38725;SDS011;24474;48.906;8.808;2023-01-25T10:58:00;21.58;;;14.27;;
38725;SDS011;24474;48.906;8.808;2023-01-25T11:00:40;21.08;;;14.45;;
38725;SDS011;24474;48.906;8.808;2023-01-25T11:03:18;19.88;;;12.32;;
38725;SDS011;24474;48.906;8.808;2023-01-25T11:05:52;17.15;;;12.45;;
38725;SDS011;24474;48.906;8.808;2023-01-25T11:08:34;19.00;;;12.90;;
38725;SDS011;24474;48.906;8.808;2023-01-25T11:13:51;19.58;;;12.85;;
38725;SDS011;24474;48.906;8.808;2023-01-25T11:16:24;19.63;;;13.88;;
38725;SDS011;24474;48.906;8.808;2023-01-25T11:18:54;17.27;;;12.50;;
38725;SDS011;24474;48.906;8.808;2023-01-25T11:21:25;16.48;;;11.43;;
38725;SDS011;24474;48.906;8.808;2023-01-25T11:24:14;17.75;;;11.02;;
38725;SDS011;24474;48.906;8.808;2023-01-25T11:26:42;15.30;;;11.00;;
38725;SDS011;24474;48.906;8.808;2023-01-25T11:29:18;17.15;;;12.30;;
38725;SDS011;24474;48.906;8.808;2023-01-25T11:31:53;19.33;;;13.40;;
38725;SDS011;24474;48.906;8.808;2023-01-25T11:34:20;41.15;;;23.85;;
38725;SDS011;24474;48.906;8.808;2023-01-25T11:37:04;21.15;;;13.20;;
38725;SDS011;24474;48.906;8.808;2023-01-25T11:39:50;16.48;;;11.70;;
38725;SDS011;24474;48.906;8.808;2023-01-25T11:58:00;17.02;;;11.15;;
38725;SDS011;24474;48.906;8.808;2023-01-25T12:06:21;16.77;;;11.32;;
38725;SDS011;24474;48.906;8.808;2023-01-25T12:08:57;15.82;;;11.13;;
38725;SDS011;24474;48.906;8.808;2023-01-25T12:11:42;18.42;;;11.80;;
38725;SDS011;24474;48.906;8.808;2023-01-25T12:25:55;18.85;;;12.52;;
38725;SDS011;24474;48.906;8.808;2023-01-25T12:28:41;18.27;;;12.93;;
38725;SDS011;24474;48.906;8.808;2023-01-25T12:31:25;20.45;;;13.45;;
38725;SDS011;24474;48.906;8.808;2023-01-25T12:34:07;18.67;;;12.35;;
38725;SDS011;24474;48.906;8.808;2023-01-25T12:36:47;17.50;;;12.38;;
38725;SDS011;24474;48.906;8.808;2023-01-25T12:39:20;16.65;;;12.80;;
38725;SDS011;24474;48.906;8.808;2023-01-25T12:42:14;21.73;;;13.48;;
38725;SDS011;24474;48.906;8.808;2023-01-25T12:44:48;19.87;;;12.83;;
38725;SDS011;24474;48.906;8.808;2023-01-25T12:47:26;17.73;;;12.25;;
38725;SDS011;24474;48.906;8.808;2023-01-25T12:50:17;17.95;;;11.98;;
38725;SDS011;24474;48.906;8.808;2023-01-25T12:52:51;18.95;;;12.38;;
38725;SDS011;24474;48.906;8.808;2023-01-25T12:57:54;17.38;;;12.32;;
38725;SDS011;24474;48.906;8.808;2023-01-25T13:13:31;18.20;;;11.82;;
38725;SDS011;24474;48.906;8.808;2023-01-25T13:15:59;18.98;;;12.40;;
38725;SDS011;24474;48.906;8.808;2023-01-25T13:18:46;22.83;;;14.82;;
38725;SDS011;24474;48.906;8.808;2023-01-25T13:24:19;18.50;;;12.38;;
38725;SDS011;24474;48.906;8.808;2023-01-25T13:35:00;19.80;;;13.38;;
38725;SDS011;24474;48.906;8.808;2023-01-25T13:37:27;20.65;;;14.00;;
38725;SDS011;24474;48.906;8.808;2023-01-25T13:40:35;18.23;;;13.00;;
38725;SDS011;24474;48.906;8.808;2023-01-25T13:43:18;15.38;;;10.07;;
38725;SDS011;24474;48.906;8.808;2023-01-25T13:45:45;21.67;;;14.40;;
38725;SDS011;24474;48.906;8.808;2023-01-25T13:48:20;25.40;;;15.70;;
38725;SDS011;24474;48.906;8.808;2023-01-25T13:50:59;23.58;;;14.50;;
38725;SDS011;24474;48.906;8.808;2023-01-25T13:53:29;19.10;;;13.32;;
38725;SDS011;24474;48.906;8.808;2023-01-25T13:56:03;21.63;;;14.38;;
38725;SDS011;24474;48.906;8.808;2023-01-25T14:03:41;14.77;;;10.90;;
38725;SDS011;24474;48.906;8.808;2023-01-25T14:09:10;16.48;;;10.73;;
38725;SDS011;24474;48.906;8.808;2023-01-25T14:17:12;15.63;;;10.20;;
38725;SDS011;24474;48.906;8.808;2023-01-25T14:19:42;18.58;;;11.68;;
38725;SDS011;24474;48.906;8.808;2023-01-25T14:22:29;18.27;;;11.52;;
38725;SDS011;24474;48.906;8.808;2023-01-25T14:25:15;16.80;;;10.98;;
38725;SDS011;24474;48.906;8.808;2023-01-25T14:27:54;15.07;;;10.18;;
38725;SDS011;24474;48.906;8.808;2023-01-25T14:30:32;11.87;;;9.23;;
38725;SDS011;24474;48.906;8.808;2023-01-25T14:33:18;15.68;;;10.98;;
38725;SDS011;24474;48.906;8.808;2023-01-25T14:35:54;14.38;;;9.57;;
38725;SDS011;24474;48.906;8.808;2023-01-25T14:38:29;14.60;;;10.13;;
38725;SDS011;24474;48.906;8.808;2023-01-25T14:44:04;14.63;;;10.23;;
38725;SDS011;24474;48.906;8.808;2023-01-25T14:46:44;14.60;;;9.90;;
38725;SDS011;24474;48.906;8.808;2023-01-25T14:49:22;14.55;;;10.48;;
38725;SDS011;24474;48.906;8.808;2023-01-25T14:54:36;15.65;;;10.73;;
38725;SDS011;24474;48.906;8.808;2023-01-25T14:57:37;15.15;;;10.88;;
38725;SDS011;24474;48.906;8.808;2023-01-25T15:00:18;15.35;;;10.00;;
38725;SDS011;24474;48.906;8.808;2023-01-25T15:05:33;17.30;;;12.30;;
38725;SDS011;24474;48.906;8.808;2023-01-25T15:10:37;19.13;;;13.10;;
38725;SDS011;24474;48.906;8.808;2023-01-25T15:13:20;13.88;;;9.85;;
38725;SDS011;24474;48.906;8.808;2023-01-25T15:18:50;15.93;;;10.02;;
38725;SDS011;24474;48.906;8.808;2023-01-25T15:23:57;16.30;;;10.45;;
38725;SDS011;24474;48.906;8.808;2023-01-25T15:26:35;16.70;;;11.75;;
38725;SDS011;24474;48.906;8.808;2023-01-25T15:29:09;22.10;;;13.32;;
38725;SDS011;24474;48.906;8.808;2023-01-25T15:31:42;17.58;;;13.13;;
38725;SDS011;24474;48.906;8.808;2023-01-25T15:34:31;19.38;;;12.30;;
38725;SDS011;24474;48.906;8.808;2023-01-25T15:37:20;18.92;;;12.00;;
38725;SDS011;24474;48.906;8.808;2023-01-25T15:39:52;16.38;;;11.82;;
38725;SDS011;24474;48.906;8.808;2023-01-25T15:42:27;20.13;;;12.30;;
38725;SDS011;24474;48.906;8.808;2023-01-25T15:44:59;20.13;;;13.23;;
38725;SDS011;24474;48.906;8.808;2023-01-25T15:47:35;22.52;;;13.75;;
38725;SDS011;24474;48.906;8.808;2023-01-25T15:50:03;21.45;;;13.52;;
38725;SDS011;24474;48.906;8.808;2023-01-25T15:52:32;19.08;;;12.63;;
38725;SDS011;24474;48.906;8.808;2023-01-25T15:55:01;20.30;;;12.32;;
38725;SDS011;24474;48.906;8.808;2023-01-25T15:57:28;19.38;;;12.98;;
38725;SDS011;24474;48.906;8.808;2023-01-25T15:59:59;22.13;;;13.98;;
38725;SDS011;24474;48.906;8.808;2023-01-25T16:02:28;20.55;;;13.70;;
38725;SDS011;24474;48.906;8.808;2023-01-25T16:04:53;20.95;;;14.00;;
38725;SDS011;24474;48.906;8.808;2023-01-25T16:07:25;21.65;;;14.30;;
38725;SDS011;24474;48.906;8.808;2023-01-25T16:09:52;21.77;;;15.23;;
38725;SDS011;24474;48.906;8.808;2023-01-25T16:12:19;19.30;;;13.18;;
38725;SDS011;24474;48.906;8.808;2023-01-25T16:14:46;21.40;;;14.43;;
38725;SDS011;24474;48.906;8.808;2023-01-25T16:17:18;22.75;;;15.50;;
38725;SDS011;24474;48.906;8.808;2023-01-25T16:19:46;23.73;;;16.67;;
38725;SDS011;24474;48.906;8.808;2023-01-25T16:22:16;22.13;;;14.48;;
38725;SDS011;24474;48.906;8.808;2023-01-25T16:24:42;24.25;;;13.40;;
38725;SDS011;24474;48.906;8.808;2023-01-25T16:27:13;24.65;;;14.30;;
38725;SDS011;24474;48.906;8.808;2023-01-25T16:29:44;20.25;;;13.90;;
38725;SDS011;24474;48.906;8.808;2023-01-25T16:32:12;23.83;;;15.93;;
38725;SDS011;24474;48.906;8.808;2023-01-25T16:34:38;23.95;;;15.05;;
38725;SDS011;24474;48.906;8.808;2023-01-25T16:37:04;22.48;;;14.43;;
38725;SDS011;24474;48.906;8.808;2023-01-25T16:39:30;22.60;;;15.05;;
38725;SDS011;24474;48.906;8.808;2023-01-25T16:41:56;23.02;;;15.60;;
38725;SDS011;24474;48.906;8.808;2023-01-25T16:44:22;24.67;;;16.08;;
38725;SDS011;24474;48.906;8.808;2023-01-25T16:46:48;24.42;;;15.50;;
38725;SDS011;24474;48.906;8.808;2023-01-25T16:49:18;24.10;;;16.75;;
38725;SDS011;24474;48.906;8.808;2023-01-25T16:51:45;28.67;;;17.92;;
38725;SDS011;24474;48.906;8.808;2023-01-25T16:54:13;29.48;;;17.27;;
38725;SDS011;24474;48.906;8.808;2023-01-25T16:56:40;28.10;;;18.02;;
38725;SDS011;24474;48.906;8.808;2023-01-25T16:59:06;25.48;;;15.85;;